Time;durP1;ratioP1;P1;durP2;ratioP2;P2;SDS_P1;SDS_P2;PMS_P1;PMS_P2;Temp;Humidity;BMP_temperature;BMP_pressure;BME280_temperature;BME280_humidity;BME280_pressure;Samples;Min_cycle;Max_cycle;Signal;HPM_P1;HPM_P2
2021/06/10 00:00:07;;;;;;;7.95;5.40;;;;;;;14.57;88.66;101280.38;4930763;29;20054;-79
2021/06/10 00:02:36;;;;;;;7.07;5.90;;;;;;;14.50;89.26;101272.59;4897803;29;20054;-79
2021/06/10 00:05:06;;;;;;;8.65;5.47;;;;;;;14.46;89.10;101277.13;4917167;29;20077;-78
2021/06/10 00:07:32;;;;;;;7.13;5.72;;;;;;;14.42;89.96;101274.53;4909697;29;20078;-78
2021/06/10 00:10:02;;;;;;;5.55;5.00;;;;;;;14.41;89.37;101273.66;4918138;29;20409;-78
2021/06/10 00:12:28;;;;;;;6.68;5.88;;;;;;;14.33;90.47;101271.22;4908423;29;20052;-78
2021/06/10 00:14:55;;;;;;;6.10;5.40;;;;;;;14.29;90.66;101272.22;4909794;29;20055;-76
2021/06/10 00:17:22;;;;;;;7.20;6.18;;;;;;;14.25;91.04;101274.97;4925915;29;20050;-79
2021/06/10 00:19:49;;;;;;;6.90;5.78;;;;;;;14.19;91.12;101272.47;4926485;29;20048;-78
2021/06/10 00:22:15;;;;;;;6.07;5.47;;;;;;;14.16;91.38;101269.91;4924070;29;20494;-77
2021/06/10 00:24:42;;;;;;;6.90;5.97;;;;;;;14.14;91.15;101269.94;4913725;29;20123;-78
2021/06/10 00:27:09;;;;;;;6.25;5.65;;;;;;;14.01;91.77;101265.84;4914723;29;20056;-78
2021/06/10 00:29:36;;;;;;;7.03;6.32;;;;;;;14.08;91.45;101270.09;4912515;29;20046;-78
2021/06/10 00:32:03;;;;;;;8.13;6.68;;;;;;;14.13;91.93;101262.03;4930474;29;20080;-78
2021/06/10 00:34:29;;;;;;;6.97;5.70;;;;;;;14.02;91.90;101260.50;4928157;29;20091;-76
2021/06/10 00:36:56;;;;;;;6.93;6.20;;;;;;;14.03;91.87;101262.22;4913802;29;20095;-77
2021/06/10 00:39:23;;;;;;;8.45;6.95;;;;;;;14.01;91.88;101265.84;4910097;29;20108;-77
2021/06/10 00:41:50;;;;;;;8.57;7.13;;;;;;;13.88;92.28;101259.97;4920602;29;20058;-77
2021/06/10 00:44:16;;;;;;;8.00;6.88;;;;;;;13.92;92.22;101258.09;4942067;29;20039;-78
2021/06/10 00:46:43;;;;;;;8.80;6.88;;;;;;;13.92;92.28;101258.97;4928544;29;20413;-79
2021/06/10 00:49:10;;;;;;;7.40;6.32;;;;;;;13.94;92.24;101254.50;4918634;29;20055;-77
2021/06/10 00:51:38;;;;;;;7.43;6.55;;;;;;;13.90;92.61;101250.19;4906094;29;20044;-79
2021/06/10 00:54:05;;;;;;;8.75;7.10;;;;;;;13.86;92.47;101255.59;4946034;29;20048;-79
2021/06/10 00:56:33;;;;;;;7.43;6.57;;;;;;;13.87;92.53;101255.53;4904483;29;20489;-77
2021/06/10 00:59:00;;;;;;;7.22;6.53;;;;;;;13.83;93.10;101248.59;4926498;29;20044;-80
2021/06/10 01:01:27;;;;;;;7.72;6.93;;;;;;;13.82;93.70;101251.28;4920905;29;20060;-79
2021/06/10 01:03:54;;;;;;;6.88;6.18;;;;;;;13.91;93.80;101251.91;4913988;29;20458;-77
2021/06/10 01:06:26;;;;;;;8.02;7.22;;;;;;;13.95;93.99;101253.56;4923907;29;20048;-80
2021/06/10 01:09:05;;;;;;;8.40;7.45;;;;;;;13.97;94.44;101251.78;4928202;29;20718;-79
2021/06/10 01:11:51;;;;;;;9.25;7.30;;;;;;;14.03;94.74;101262.22;4927438;29;20050;-79
2021/06/10 01:14:36;;;;;;;8.35;6.78;;;;;;;14.16;93.84;101264.59;4943791;29;20059;-78
2021/06/10 01:17:05;;;;;;;7.95;6.35;;;;;;;14.15;93.97;101262.84;4927415;29;20063;-77
2021/06/10 01:19:50;;;;;;;8.50;7.40;;;;;;;14.09;94.57;101279.81;4920526;29;20062;-77
2021/06/10 01:22:26;;;;;;;10.27;7.32;;;;;;;14.12;95.50;101277.06;4907825;29;20140;-78
2021/06/10 01:25:32;;;;;;;10.43;7.80;;;;;;;14.15;95.98;101278.78;4930146;29;20039;-79
2021/06/10 01:28:01;;;;;;;9.63;7.72;;;;;;;14.19;95.96;101283.09;4947148;28;20055;-77
2021/06/10 01:30:32;;;;;;;9.02;7.95;;;;;;;14.22;96.32;101294.53;4944420;28;20079;-78
2021/06/10 01:33:05;;;;;;;7.40;6.68;;;;;;;14.25;96.33;101299.78;4912525;29;20333;-80
2021/06/10 01:35:36;;;;;;;7.55;6.43;;;;;;;14.27;96.51;101297.94;4933437;29;20056;-77
2021/06/10 01:38:04;;;;;;;8.38;7.43;;;;;;;14.33;96.40;101289.81;4926370;29;20055;-79
2021/06/10 01:40:31;;;;;;;8.50;6.40;;;;;;;14.40;96.38;101285.22;4910663;29;20047;-76
2021/06/10 01:42:59;;;;;;;8.23;6.72;;;;;;;14.47;95.65;101283.31;4911659;29;20043;-78
2021/06/10 01:45:26;;;;;;;9.38;6.50;;;;;;;14.55;95.28;101279.53;4907849;29;20043;-77
2021/06/10 01:47:53;;;;;;;6.82;6.13;;;;;;;14.46;95.47;101261.19;4929393;29;21386;-79
2021/06/10 01:50:22;;;;;;;6.55;5.88;;;;;;;14.47;95.84;101262.03;4929158;29;20036;-80
2021/06/10 01:52:50;;;;;;;7.32;6.40;;;;;;;14.54;95.35;101261.81;4914388;29;20044;-79
2021/06/10 01:55:19;;;;;;;6.45;5.38;;;;;;;14.57;94.65;101259.09;4932242;29;20039;-79
2021/06/10 01:57:46;;;;;;;7.03;6.00;;;;;;;14.62;94.74;101245.66;4927390;29;20039;-79
2021/06/10 02:00:14;;;;;;;7.15;6.00;;;;;;;14.68;93.57;101244.63;4931405;29;20048;-80
2021/06/10 02:02:42;;;;;;;7.45;6.38;;;;;;;14.73;92.61;101238.25;4936812;29;20379;-78
2021/06/10 02:05:10;;;;;;;6.50;5.80;;;;;;;14.75;91.75;101247.06;4916483;28;20043;-79
2021/06/10 02:07:42;;;;;;;7.55;5.85;;;;;;;14.69;92.05;101241.91;4925257;29;20139;-80
2021/06/10 02:10:12;;;;;;;8.02;6.35;;;;;;;14.57;92.25;101247.59;4932088;29;20465;-79
2021/06/10 02:12:38;;;;;;;6.55;5.80;;;;;;;14.63;91.96;101231.47;4947358;29;20048;-78
2021/06/10 02:15:08;;;;;;;8.85;6.50;;;;;;;14.58;91.29;101239.56;4925105;29;20260;-79
2021/06/10 02:17:35;;;;;;;6.25;5.65;;;;;;;14.55;91.79;101234.34;5004433;23;20044;-79
2021/06/10 02:20:04;;;;;;;6.45;5.18;;;;;;;14.48;92.22;101234.53;4929904;29;20094;-78
2021/06/10 02:22:31;;;;;;;6.68;6.03;;;;;;;14.48;91.80;101226.56;4925718;29;20094;-79
2021/06/10 02:24:58;;;;;;;11.43;5.82;;;;;;;14.59;91.47;101230.66;4951736;28;20032;-79
2021/06/10 02:27:24;;;;;;;7.35;5.95;;;;;;;14.43;92.14;101223.97;4932764;28;20043;-78
2021/06/10 02:29:51;;;;;;;7.32;5.40;;;;;;;14.51;90.92;101222.03;4953840;28;20058;-78
2021/06/10 02:32:17;;;;;;;8.13;5.55;;;;;;;14.60;91.47;101228.88;4954972;28;20047;-78
2021/06/10 02:34:44;;;;;;;7.65;5.88;;;;;;;14.56;91.68;101236.06;4936604;29;20440;-79
2021/06/10 02:37:12;;;;;;;6.70;5.82;;;;;;;14.38;92.39;101241.88;4950756;29;20452;-79
2021/06/10 02:39:41;;;;;;;6.13;5.50;;;;;;;14.24;92.61;101239.56;4946647;28;20535;-80
2021/06/10 02:42:11;;;;;;;7.25;5.82;;;;;;;14.25;92.47;101236.00;4953230;28;20058;-80
2021/06/10 02:44:39;;;;;;;5.90;5.30;;;;;;;14.23;92.72;101234.28;4951709;28;20035;-78
2021/06/10 02:47:06;;;;;;;7.20;5.82;;;;;;;14.19;92.45;101248.56;4933131;29;20055;-78
2021/06/10 02:49:34;;;;;;;5.85;5.25;;;;;;;14.05;93.30;101239.19;4932154;29;20131;-79
2021/06/10 02:52:01;;;;;;;6.75;5.10;;;;;;;13.99;94.05;101231.34;4926101;29;20043;-78
2021/06/10 02:54:28;;;;;;;9.48;5.57;;;;;;;14.08;93.54;101224.94;4951425;28;20123;-80
2021/06/10 02:56:56;;;;;;;6.85;5.47;;;;;;;14.11;93.03;101234.59;4939881;29;20054;-81
2021/06/10 02:59:23;;;;;;;6.03;5.25;;;;;;;14.08;92.64;101222.28;4930481;29;20158;-79
2021/06/10 03:01:51;;;;;;;6.05;5.40;;;;;;;14.03;92.76;101233.00;4933325;29;20105;-80
2021/06/10 03:04:17;;;;;;;5.65;5.07;;;;;;;14.05;92.50;101233.00;4930914;29;20054;-81
2021/06/10 03:06:45;;;;;;;6.70;5.97;;;;;;;14.03;92.84;101227.69;4914561;29;20046;-79
2021/06/10 03:09:12;;;;;;;5.78;5.10;;;;;;;14.00;93.17;101238.41;4911546;29;20437;-81
2021/06/10 03:11:40;;;;;;;6.43;5.18;;;;;;;13.89;93.61;101227.19;4925384;29;20043;-80
2021/06/10 03:14:11;;;;;;;5.97;5.32;;;;;;;13.89;93.53;101221.00;4929129;29;20052;-80
2021/06/10 03:16:40;;;;;;;6.22;5.03;;;;;;;13.90;93.12;101228.06;4928947;29;20588;-79
2021/06/10 03:19:07;;;;;;;7.65;5.50;;;;;;;13.90;93.24;101225.41;4930203;29;20090;-79
2021/06/10 03:21:34;;;;;;;5.63;5.13;;;;;;;13.88;93.07;101224.59;4918333;29;20433;-80
2021/06/10 03:24:01;;;;;;;6.35;5.47;;;;;;;13.83;93.69;101222.03;4915217;29;20110;-80
2021/06/10 03:26:28;;;;;;;5.95;5.35;;;;;;;13.83;93.66;101227.34;4917471;29;20043;-79
2021/06/10 03:28:55;;;;;;;6.30;5.60;;;;;;;13.84;93.59;101230.88;4926576;28;20043;-79
2021/06/10 03:31:22;;;;;;;6.07;4.93;;;;;;;13.81;93.42;101234.47;4907077;28;20043;-79
2021/06/10 03:33:50;;;;;;;6.60;5.90;;;;;;;13.75;94.31;101232.84;4934182;29;20102;-81
2021/06/10 03:36:18;;;;;;;7.32;5.47;;;;;;;13.75;94.24;101232.84;4925326;29;20051;-77
2021/06/10 03:38:45;;;;;;;7.15;6.03;;;;;;;13.76;94.50;101233.69;4937149;28;20039;-77
2021/06/10 03:41:13;;;;;;;6.85;5.63;;;;;;;13.79;94.42;101233.66;4929091;29;20063;-79
2021/06/10 03:43:40;;;;;;;6.93;5.95;;;;;;;13.82;94.92;101230.91;4930108;29;20051;-79
2021/06/10 03:46:07;;;;;;;6.40;5.72;;;;;;;13.75;95.06;101227.53;4943230;28;20117;-80
2021/06/10 03:48:35;;;;;;;5.70;5.20;;;;;;;13.74;95.04;101225.78;4927254;28;20040;-79
2021/06/10 03:51:11;;;;;;;5.82;5.22;;;;;;;13.73;95.22;101224.03;4928256;29;20531;-79
2021/06/10 03:53:38;;;;;;;6.53;5.93;;;;;;;13.72;95.36;101226.75;4933802;29;20039;-80
2021/06/10 03:56:05;;;;;;;5.80;5.20;;;;;;;13.78;95.36;101223.91;4932947;29;20098;-82
2021/06/10 03:58:32;;;;;;;5.53;4.93;;;;;;;13.82;95.05;101230.03;4930002;29;20090;-81
2021/06/10 04:00:58;;;;;;;6.40;5.80;;;;;;;13.90;94.89;101226.28;4920645;29;20047;-83
2021/06/10 04:03:25;;;;;;;7.72;5.93;;;;;;;13.92;95.06;101226.22;4929957;29;20039;-81
2021/06/10 04:05:52;;;;;;;6.80;6.10;;;;;;;14.04;95.34;101236.53;4934170;29;20038;-81
2021/06/10 04:08:19;;;;;;;6.45;5.75;;;;;;;14.07;95.44;101237.34;4931211;29;20050;-81
2021/06/10 04:10:45;;;;;;;7.10;6.35;;;;;;;14.05;95.61;101233.00;4933454;29;20050;-80
2021/06/10 04:13:12;;;;;;;8.18;6.32;;;;;;;14.01;95.70;101231.31;4935836;29;20059;-79
2021/06/10 04:15:39;;;;;;;6.88;6.18;;;;;;;13.98;96.08;101232.28;4953552;28;20043;-81
2021/06/10 04:18:06;;;;;;;6.72;6.13;;;;;;;13.94;95.58;101243.00;4934442;29;20055;-84
2021/06/10 04:20:33;;;;;;;6.45;5.70;;;;;;;13.98;95.73;101240.25;4948754;29;20412;-78
2021/06/10 04:22:59;;;;;;;5.97;5.30;;;;;;;14.00;95.69;101241.06;4927504;29;20580;-79
2021/06/10 04:25:26;;;;;;;7.28;6.40;;;;;;;13.98;96.40;101244.69;4930707;29;20154;-82
2021/06/10 04:27:53;;;;;;;8.70;6.10;;;;;;;14.03;96.70;101237.44;4942501;29;20094;-81
2021/06/10 04:30:21;;;;;;;6.60;6.00;;;;;;;14.00;97.04;101230.44;4923965;29;20440;-80
2021/06/10 04:32:47;;;;;;;8.73;6.10;;;;;;;14.03;97.54;101243.63;4939808;29;20535;-79
2021/06/10 04:35:14;;;;;;;6.85;5.75;;;;;;;14.03;97.62;101235.66;4932901;29;20102;-78
2021/06/10 04:37:42;;;;;;;6.68;5.93;;;;;;;14.05;98.28;101247.16;4919835;29;20047;-82
2021/06/10 04:40:09;;;;;;;7.93;6.53;;;;;;;14.20;98.65;101242.31;4910922;29;20055;-83
2021/06/10 04:42:36;;;;;;;6.68;5.88;;;;;;;14.22;98.33;101246.72;4915911;29;20047;-79
2021/06/10 04:45:03;;;;;;;9.95;7.28;;;;;;;14.28;98.28;101241.22;4952260;29;20047;-84
2021/06/10 04:47:29;;;;;;;6.63;5.90;;;;;;;14.34;99.15;101249.03;4928839;29;20043;-78
2021/06/10 04:49:56;;;;;;;7.00;6.30;;;;;;;14.45;99.18;101247.88;4919947;29;20440;-78
2021/06/10 04:52:23;;;;;;;6.82;6.15;;;;;;;14.47;100.00;101235.47;4944775;29;20460;-79
2021/06/10 04:54:50;;;;;;;7.65;6.45;;;;;;;14.56;100.00;101248.50;4932200;29;20497;-78
2021/06/10 04:57:16;;;;;;;7.97;5.93;;;;;;;14.67;100.00;101241.09;4932702;29;20053;-81
2021/06/10 04:59:43;;;;;;;7.43;5.85;;;;;;;14.75;99.30;101246.19;4952393;29;20046;-81
2021/06/10 05:02:10;;;;;;;6.63;5.63;;;;;;;14.86;99.69;101246.75;4962575;28;20039;-78
2021/06/10 05:04:37;;;;;;;6.35;5.75;;;;;;;14.95;99.94;101243.81;4947068;29;20063;-79
2021/06/10 05:07:04;;;;;;;6.82;5.95;;;;;;;15.03;99.95;101247.13;4938862;29;20595;-81
2021/06/10 05:09:30;;;;;;;6.32;5.38;;;;;;;15.17;100.00;101244.94;4954498;28;20069;-79
2021/06/10 05:11:57;;;;;;;6.95;6.07;;;;;;;15.35;99.13;101243.50;4956087;29;20430;-80
2021/06/10 05:14:24;;;;;;;7.35;6.18;;;;;;;15.65;98.34;101239.03;4938443;29;20109;-78
2021/06/10 05:16:50;;;;;;;6.60;5.47;;;;;;;16.50;92.97;101240.59;4932154;29;20047;-78
2021/06/10 05:19:17;;;;;;;5.80;5.22;;;;;;;16.68;89.89;101240.84;4937892;28;20501;-80
2021/06/10 05:21:44;;;;;;;5.28;4.78;;;;;;;16.85;89.09;101236.66;4933793;29;20048;-80
2021/06/10 05:24:13;;;;;;;5.30;4.80;;;;;;;16.88;88.31;101239.19;4938473;29;20041;-81
2021/06/10 05:26:41;;;;;;;5.03;4.53;;;;;;;16.85;88.21;101242.00;4953092;28;20051;-79
2021/06/10 05:29:08;;;;;;;5.25;4.70;;;;;;;16.84;88.66;101240.25;4948461;29;20050;-81
2021/06/10 05:31:35;;;;;;;6.32;5.38;;;;;;;16.91;88.07;101240.03;4928852;29;20122;-80
2021/06/10 05:34:02;;;;;;;6.30;5.05;;;;;;;16.83;88.92;101234.97;4949583;28;20046;-78
2021/06/10 05:36:29;;;;;;;8.27;5.50;;;;;;;16.77;89.61;101243.22;4931406;29;20066;-82
2021/06/10 05:38:56;;;;;;;5.70;5.07;;;;;;;17.13;88.60;101249.81;4942021;28;20040;-80
2021/06/10 05:41:22;;;;;;;5.72;4.72;;;;;;;17.38;86.17;101241.72;4931477;28;20051;-80
2021/06/10 05:43:49;;;;;;;4.90;4.40;;;;;;;18.63;76.23;101237.41;4925287;29;20062;-79
2021/06/10 05:46:16;;;;;;;4.30;3.65;;;;;;;20.46;70.37;101242.00;4923350;29;20043;-80
2021/06/10 05:48:43;;;;;;;4.25;3.83;;;;;;;22.18;59.87;101239.56;4950751;29;20118;-80
2021/06/10 05:51:10;;;;;;;3.47;3.17;;;;;;;24.30;52.83;101231.34;4932179;29;20047;-80
2021/06/10 05:53:36;;;;;;;3.22;2.92;;;;;;;25.68;50.28;101235.00;4926244;29;20540;-79
2021/06/10 05:56:03;;;;;;;3.65;3.13;;;;;;;26.91;48.51;101243.56;4949109;28;20055;-80
2021/06/10 05:58:31;;;;;;;4.63;3.40;;;;;;;27.66;45.20;101234.75;4936498;29;20513;-79
2021/06/10 06:00:58;;;;;;;3.80;3.45;;;;;;;27.93;42.31;101229.78;4924290;28;20046;-81
2021/06/10 06:03:30;;;;;;;3.40;3.10;;;;;;;27.38;41.60;101234.31;4922415;29;20078;-79
2021/06/10 06:05:58;;;;;;;3.00;2.70;;;;;;;27.40;42.27;101231.47;4953316;28;20094;-79
2021/06/10 06:08:24;;;;;;;8.20;3.78;;;;;;;26.96;46.49;101227.78;4934187;28;20130;-81
2021/06/10 06:10:52;;;;;;;7.00;3.55;;;;;;;26.20;45.32;101240.06;4917693;29;20051;-80
2021/06/10 06:13:31;;;;;;;4.75;3.33;;;;;;;25.92;47.01;101235.91;4923071;29;20488;-79
2021/06/10 06:16:03;;;;;;;11.25;4.13;;;;;;;25.42;50.12;101237.81;4953824;29;20485;-80
2021/06/10 06:18:30;;;;;;;3.88;3.28;;;;;;;24.76;53.46;101238.94;4937300;29;20058;-81
2021/06/10 06:21:00;;;;;;;4.63;3.10;;;;;;;24.84;49.80;101239.28;4935144;29;20051;-81
2021/06/10 06:23:28;;;;;;;4.03;3.00;;;;;;;24.86;49.97;101249.97;4933638;29;20039;-79
2021/06/10 06:25:55;;;;;;;181.77;23.73;;;;;;;24.82;50.31;101241.22;4955543;28;20035;-80
2021/06/10 06:28:23;;;;;;;7.15;3.60;;;;;;;24.79;46.19;101245.97;4931076;29;20044;-81
2021/06/10 06:30:50;;;;;;;4.18;2.60;;;;;;;24.80;44.77;101243.16;4925165;29;20058;-80
2021/06/10 06:33:17;;;;;;;3.83;2.90;;;;;;;24.82;45.76;101245.78;4953318;28;20607;-79
2021/06/10 06:35:44;;;;;;;9.85;3.53;;;;;;;24.81;47.70;101249.44;4936409;29;20059;-79
2021/06/10 06:38:12;;;;;;;4.45;3.22;;;;;;;24.89;48.17;101250.63;4937652;29;20043;-82
2021/06/10 06:40:39;;;;;;;3.53;2.80;;;;;;;24.92;46.06;101250.41;4951756;29;20066;-79
2021/06/10 06:43:06;;;;;;;3.63;3.28;;;;;;;25.04;43.57;101245.97;4936698;29;20054;-80
2021/06/10 06:45:36;;;;;;;5.30;3.35;;;;;;;24.82;44.24;101249.34;4945148;29;20072;-79
2021/06/10 06:48:04;;;;;;;8.05;3.47;;;;;;;24.67;44.89;101248.56;4949877;28;20055;-83
2021/06/10 06:50:31;;;;;;;4.20;2.83;;;;;;;24.90;45.12;101252.34;4934900;29;20078;-82
2021/06/10 06:52:58;;;;;;;3.58;3.00;;;;;;;25.01;44.79;101254.28;4936351;29;20050;-81
2021/06/10 06:55:25;;;;;;;4.28;3.88;;;;;;;24.93;43.17;101249.44;4948054;28;20043;-82
2021/06/10 06:57:52;;;;;;;3.45;3.15;;;;;;;25.13;44.41;101253.44;4936031;29;20046;-81
2021/06/10 07:00:20;;;;;;;12.65;4.55;;;;;;;25.37;44.63;101252.63;4943538;28;20051;-81
2021/06/10 07:02:48;;;;;;;3.00;2.55;;;;;;;25.58;44.79;101245.66;4952347;28;20074;-80
2021/06/10 07:05:15;;;;;;;3.53;3.15;;;;;;;25.47;43.62;101245.56;4935560;29;20081;-80
2021/06/10 07:07:42;;;;;;;3.97;3.53;;;;;;;25.41;43.72;101248.75;4936237;29;20518;-81
2021/06/10 07:10:09;;;;;;;3.65;3.35;;;;;;;25.25;43.07;101255.25;4934449;29;20142;-83
2021/06/10 07:12:36;;;;;;;8.75;4.13;;;;;;;25.37;42.60;101256.19;4933359;29;20043;-80
2021/06/10 07:15:04;;;;;;;3.25;2.95;;;;;;;25.59;42.32;101260.91;4933050;29;20056;-81
2021/06/10 07:17:31;;;;;;;4.40;3.40;;;;;;;25.80;42.06;101262.03;4951477;29;20093;-81
2021/06/10 07:20:00;;;;;;;4.18;3.22;;;;;;;25.95;42.84;101256.44;4918108;29;20465;-81
2021/06/10 07:22:31;;;;;;;3.00;2.70;;;;;;;26.08;42.09;101257.25;4950563;29;20035;-80
2021/06/10 07:24:58;;;;;;;3.10;2.88;;;;;;;26.22;41.24;101265.19;4935524;29;20146;-81
2021/06/10 07:27:25;;;;;;;4.35;3.95;;;;;;;25.75;39.36;101266.09;4943786;29;20556;-79
2021/06/10 07:29:53;;;;;;;3.40;3.10;;;;;;;25.98;40.71;101265.22;4934322;29;20425;-82
2021/06/10 07:32:20;;;;;;;3.83;3.00;;;;;;;26.21;41.93;101265.31;4934176;29;20078;-79
2021/06/10 07:34:48;;;;;;;3.78;3.38;;;;;;;26.24;38.80;101278.63;4951608;29;20043;-81
2021/06/10 07:37:14;;;;;;;4.05;3.40;;;;;;;26.30;39.45;101279.00;4940271;29;20043;-79
2021/06/10 07:39:41;;;;;;;2.95;2.65;;;;;;;26.31;40.41;101269.03;4924309;29;20067;-78
2021/06/10 07:42:09;;;;;;;3.42;2.65;;;;;;;26.54;41.51;101275.41;4952276;29;20043;-83
2021/06/10 07:44:36;;;;;;;3.78;3.30;;;;;;;26.65;39.82;101270.00;4923465;29;20073;-81
2021/06/10 07:47:03;;;;;;;3.78;2.92;;;;;;;26.59;42.63;101273.22;4928107;29;20110;-78
2021/06/10 07:49:32;;;;;;;3.63;3.25;;;;;;;26.79;41.68;101277.06;4929468;29;20064;-81
2021/06/10 07:52:00;;;;;;;3.60;3.30;;;;;;;26.74;38.52;101274.75;4930019;29;20043;-82
2021/06/10 07:54:27;;;;;;;3.78;3.47;;;;;;;26.65;39.10;101283.56;4927350;28;20043;-80
2021/06/10 07:56:54;;;;;;;3.83;3.53;;;;;;;26.25;38.98;101274.94;4935199;29;20043;-81
2021/06/10 07:59:27;;;;;;;3.95;3.40;;;;;;;26.74;39.54;101274.75;4949100;29;20109;-81
2021/06/10 08:01:55;;;;;;;3.83;3.38;;;;;;;26.78;39.38;101278.06;4923464;29;20044;-81
2021/06/10 08:04:23;;;;;;;4.80;3.80;;;;;;;26.52;40.81;101274.69;4929756;29;20048;-79
2021/06/10 08:06:50;;;;;;;5.50;4.22;;;;;;;26.30;40.33;101270.00;4925710;29;20043;-80
2021/06/10 08:09:17;;;;;;;6.05;4.25;;;;;;;25.81;42.52;101269.19;4915001;29;20102;-79
2021/06/10 08:11:45;;;;;;;4.35;3.90;;;;;;;25.85;40.94;101268.97;4931722;29;20039;-80
2021/06/10 08:14:12;;;;;;;5.30;4.85;;;;;;;26.38;38.19;101270.31;4930284;29;20054;-79
2021/06/10 08:16:41;;;;;;;5.85;4.50;;;;;;;26.68;37.00;101269.78;4916146;29;20130;-82
2021/06/10 08:19:08;;;;;;;43.90;8.25;;;;;;;26.45;37.17;101266.16;4948244;28;20075;-80
2021/06/10 08:21:34;;;;;;;5.65;4.10;;;;;;;26.93;39.35;101272.28;4931632;29;20126;-81
2021/06/10 08:24:02;;;;;;;4.53;4.07;;;;;;;27.03;35.58;101269.72;4915092;28;20047;-82
2021/06/10 08:26:28;;;;;;;3.60;3.10;;;;;;;27.30;36.84;101265.78;4929666;29;20039;-82
2021/06/10 08:28:55;;;;;;;4.15;2.63;;;;;;;27.51;34.32;101261.31;4944141;28;20414;-82
2021/06/10 08:31:22;;;;;;;3.95;3.25;;;;;;;27.43;35.55;101267.38;4933436;29;20061;-81
2021/06/10 08:33:49;;;;;;;4.20;3.58;;;;;;;27.51;36.23;101271.31;4933384;29;20044;-82
2021/06/10 08:36:18;;;;;;;3.65;3.10;;;;;;;27.71;37.00;101266.00;4950977;29;20102;-81
2021/06/10 08:38:46;;;;;;;3.33;3.03;;;;;;;27.60;36.42;101273.28;4951652;29;20035;-81
2021/06/10 08:41:14;;;;;;;5.10;3.80;;;;;;;27.62;37.18;101268.56;4949308;28;20047;-80
2021/06/10 08:43:42;;;;;;;3.65;3.35;;;;;;;27.68;36.29;101268.97;4952899;29;20047;-82
2021/06/10 08:46:11;;;;;;;4.13;3.47;;;;;;;27.89;37.31;101273.59;5120038;23;20066;-82
2021/06/10 08:48:43;;;;;;;3.45;3.15;;;;;;;27.76;35.34;101265.63;4951075;28;20137;-82
2021/06/10 08:51:11;;;;;;;3.75;3.15;;;;;;;27.49;36.49;101263.28;4948722;28;20389;-82
2021/06/10 08:53:38;;;;;;;4.35;2.80;;;;;;;27.22;33.67;101274.53;4932686;29;20497;-81
2021/06/10 08:56:05;;;;;;;3.22;2.92;;;;;;;27.42;34.97;101270.22;4919195;29;20043;-83
2021/06/10 08:58:33;;;;;;;590.58;86.80;;;;;;;27.62;33.91;101268.56;4930794;28;20101;-80
2021/06/10 09:01:01;;;;;;;4.40;2.58;;;;;;;27.83;34.66;101274.09;4931516;29;20047;-80
2021/06/10 09:03:32;;;;;;;4.10;2.80;;;;;;;27.99;33.88;101271.81;4932941;29;20043;-79
2021/06/10 09:06:06;;;;;;;3.58;3.28;;;;;;;28.15;35.75;101271.41;4946347;28;20054;-79
2021/06/10 09:08:38;;;;;;;3.08;2.80;;;;;;;28.12;34.69;101272.53;4933361;29;20047;-80
2021/06/10 09:11:16;;;;;;;3.15;2.80;;;;;;;28.30;35.10;101279.13;4931644;29;20046;-79
2021/06/10 09:13:51;;;;;;;3.97;2.95;;;;;;;28.45;33.73;101276.97;4946991;28;20109;-80
2021/06/10 09:16:25;;;;;;;3.70;2.90;;;;;;;28.34;34.01;101273.47;4947913;28;20572;-80
2021/06/10 09:19:03;;;;;;;2.83;2.63;;;;;;;28.52;33.01;101272.75;4945567;28;20192;-79
2021/06/10 09:21:45;;;;;;;3.35;3.05;;;;;;;28.48;33.16;101273.97;4930998;28;20439;-80
2021/06/10 09:24:19;;;;;;;3.30;3.00;;;;;;;28.25;33.29;101273.22;4950648;28;20047;-79
2021/06/10 09:26:54;;;;;;;4.60;3.20;;;;;;;27.93;32.15;101269.66;4947352;28;20126;-79
2021/06/10 09:29:33;;;;;;;3.30;2.97;;;;;;;27.39;33.09;101275.88;4944431;28;20114;-79
2021/06/10 09:32:00;;;;;;;4.65;3.42;;;;;;;26.60;35.14;101278.53;4948350;28;20405;-80
2021/06/10 09:34:42;;;;;;;3.83;3.40;;;;;;;26.97;34.41;101269.31;4965862;28;20052;-79
2021/06/10 09:37:11;;;;;;;3.20;2.90;;;;;;;27.21;35.01;101265.53;4933305;29;20043;-79
2021/06/10 09:39:58;;;;;;;3.85;2.90;;;;;;;27.84;35.82;101267.69;4948601;29;20146;-79
2021/06/10 09:42:30;;;;;;;3.38;3.00;;;;;;;27.90;34.20;101265.31;4934231;28;20050;-79
2021/06/10 09:44:59;;;;;;;3.20;2.90;;;;;;;27.74;34.17;101273.88;4951017;28;20450;-82
2021/06/10 09:47:36;;;;;;;3.63;3.03;;;;;;;27.49;34.03;101268.72;4934186;29;20046;-81
2021/06/10 09:50:23;;;;;;;3.50;3.20;;;;;;;27.35;35.58;101271.72;4951443;28;20511;-78
2021/06/10 09:52:59;;;;;;;4.43;3.30;;;;;;;27.31;34.08;101264.78;4933593;29;20043;-80
2021/06/10 09:55:41;;;;;;;4.60;3.33;;;;;;;27.57;35.74;101268.09;4933156;29;20043;-80
2021/06/10 09:58:13;;;;;;;4.18;3.40;;;;;;;27.77;34.48;101262.78;4937141;29;20592;-80
2021/06/10 10:00:49;;;;;;;3.60;3.10;;;;;;;28.05;35.67;101258.59;4929914;29;20110;-80
2021/06/10 10:03:25;;;;;;;3.42;3.13;;;;;;;27.63;33.76;101270.31;4947896;29;20723;-78
2021/06/10 10:05:53;;;;;;;4.18;3.25;;;;;;;28.18;35.44;101261.16;4946652;28;20723;-82
2021/06/10 10:08:20;;;;;;;4.88;2.90;;;;;;;28.32;33.25;101263.56;4950907;28;20102;-82
2021/06/10 10:10:47;;;;;;;3.53;3.00;;;;;;;28.11;32.95;101264.50;4944005;28;20037;-80
2021/06/10 10:13:16;;;;;;;3.50;3.17;;;;;;;28.40;34.40;101272.91;4914878;29;20043;-80
2021/06/10 10:15:44;;;;;;;2.72;2.53;;;;;;;28.17;31.65;101266.72;4926232;29;20046;-79
2021/06/10 10:18:12;;;;;;;3.20;2.90;;;;;;;27.75;30.72;101266.63;4948440;29;20039;-82
2021/06/10 10:20:40;;;;;;;2.97;2.67;;;;;;;28.03;31.08;101266.03;4934376;28;20481;-79
2021/06/10 10:23:07;;;;;;;2.50;2.30;;;;;;;27.98;30.61;101249.22;4950039;29;20051;-82
2021/06/10 10:25:34;;;;;;;2.20;2.00;;;;;;;28.21;31.12;101260.00;4930701;29;20051;-81
2021/06/10 10:28:05;;;;;;;5.32;2.40;;;;;;;28.41;30.06;101261.03;4964148;28;20054;-79
2021/06/10 10:30:32;;;;;;;2.97;2.17;;;;;;;28.54;29.46;101256.28;4963830;28;20043;-80
2021/06/10 10:33:13;;;;;;;2.40;2.20;;;;;;;28.72;29.62;101254.69;4939481;28;20043;-80
2021/06/10 10:35:57;;;;;;;3.40;2.20;;;;;;;28.42;27.84;101258.22;4946427;28;20758;-79
2021/06/10 10:38:35;;;;;;;5.82;2.78;;;;;;;28.29;30.39;101258.41;4931461;29;20077;-78
2021/06/10 10:41:15;;;;;;;12.70;3.55;;;;;;;28.53;30.10;101255.44;4942276;28;20055;-79
2021/06/10 10:43:42;;;;;;;3.97;2.63;;;;;;;28.39;30.15;101247.59;4941288;29;20118;-80
2021/06/10 10:46:11;;;;;;;2.67;2.47;;;;;;;28.45;31.07;101252.50;4947312;28;20863;-78
2021/06/10 10:48:42;;;;;;;3.55;2.40;;;;;;;28.19;30.10;101253.84;4927951;28;20719;-81
2021/06/10 10:51:30;;;;;;;4.00;2.30;;;;;;;28.26;28.38;101253.22;4945223;28;20061;-79
2021/06/10 10:53:59;;;;;;;2.42;1.90;;;;;;;27.91;28.95;101253.44;4930264;29;20048;-80
2021/06/10 10:56:46;;;;;;;2.42;2.22;;;;;;;28.31;28.74;101244.69;4931599;29;20052;-81
2021/06/10 10:59:16;;;;;;;2.90;2.35;;;;;;;28.45;29.54;101243.50;4911426;29;20163;-79
2021/06/10 11:02:05;;;;;;;3.17;2.58;;;;;;;28.16;30.40;101237.78;4940579;29;20110;-80
2021/06/10 11:04:50;;;;;;;3.10;2.58;;;;;;;27.85;28.90;101242.28;4929896;29;20055;-81
2021/06/10 11:07:32;;;;;;;2.30;2.10;;;;;;;28.05;30.38;101236.88;4946285;29;20557;-78
2021/06/10 11:10:00;;;;;;;2.65;2.22;;;;;;;28.04;29.72;101237.84;4932906;29;20063;-79
2021/06/10 11:12:47;;;;;;;3.88;2.25;;;;;;;27.98;29.54;101227.50;4929518;29;20517;-81
2021/06/10 11:15:25;;;;;;;2.83;1.98;;;;;;;27.87;29.67;101219.41;4963077;28;20078;-81
2021/06/10 11:17:55;;;;;;;3.45;2.33;;;;;;;27.99;30.25;101225.66;4950992;29;20143;-81
2021/06/10 11:20:37;;;;;;;2.83;2.63;;;;;;;27.91;29.98;101214.56;4933506;29;20043;-83
2021/06/10 11:23:14;;;;;;;2.72;2.53;;;;;;;28.01;30.37;101215.53;4961928;28;20035;-81
2021/06/10 11:25:43;;;;;;;2.47;2.28;;;;;;;28.16;32.01;101213.34;4958374;28;20050;-80
2021/06/10 11:28:16;;;;;;;3.15;2.92;;;;;;;28.27;29.83;101210.59;4931832;29;20089;-79
2021/06/10 11:30:47;;;;;;;2.70;2.50;;;;;;;28.48;29.66;101203.31;4927227;29;20694;-79
2021/06/10 11:33:17;;;;;;;2.78;2.25;;;;;;;28.62;29.92;101207.53;4943275;28;20050;-84